Time;durP1;ratioP1;P1;durP2;ratioP2;P2;SDS_P1;SDS_P2;PMS_P1;PMS_P2;Temp;Humidity;BMP_temperature;BMP_pressure;BME280_temperature;BME280_humidity;BME280_pressure;Samples;Min_cycle;Max_cycle;Signal;HPM_P1;HPM_P2
2023/03/19 00:02:09;;;;;;;55.70;24.70;;;11.20;75.40;;;;;;5013342;28;20994;-81
2023/03/19 00:04:45;;;;;;;121.70;45.63;;;11.10;75.10;;;;;;5011460;28;20551;-84
2023/03/19 00:07:14;;;;;;;33.73;14.40;;;11.00;75.10;;;;;;5011771;28;20452;-81
2023/03/19 00:09:47;;;;;;;38.17;18.13;;;11.00;75.10;;;;;;5017366;28;20923;-82
2023/03/19 00:12:15;;;;;;;47.07;22.40;;;10.90;75.10;;;;;;5007506;28;20476;-79
2023/03/19 00:14:43;;;;;;;57.73;24.27;;;10.90;75.20;;;;;;5014944;28;20596;-81
2023/03/19 00:17:11;;;;;;;40.27;18.60;;;10.80;75.20;;;;;;5015446;28;20461;-82
2023/03/19 00:19:39;;;;;;;22.23;12.70;;;10.80;75.20;;;;;;5013272;28;20455;-80
2023/03/19 00:22:08;;;;;;;13.67;9.40;;;10.70;75.20;;;;;;5013767;28;20478;-84
2023/03/19 00:24:36;;;;;;;21.70;11.43;;;10.70;75.20;;;;;;5001640;28;20472;-80
2023/03/19 00:27:06;;;;;;;19.33;12.07;;;10.70;75.40;;;;;;4989646;28;20471;-83
2023/03/19 00:29:34;;;;;;;47.37;21.53;;;10.70;75.40;;;;;;5016197;28;20824;-79
2023/03/19 00:32:02;;;;;;;110.63;42.00;;;10.70;75.50;;;;;;5003871;28;20482;-80
2023/03/19 00:34:30;;;;;;;77.67;31.83;;;10.60;75.40;;;;;;5009677;28;20460;-83
2023/03/19 00:36:58;;;;;;;31.90;15.80;;;10.60;75.40;;;;;;4995565;28;20457;-81
2023/03/19 00:39:26;;;;;;;22.10;12.13;;;10.50;75.40;;;;;;4998453;28;20537;-79
2023/03/19 00:41:54;;;;;;;17.90;9.97;;;10.50;75.40;;;;;;5008709;28;20479;-82
2023/03/19 00:44:23;;;;;;;16.50;11.13;;;10.40;75.40;;;;;;5007247;28;20465;-79
2023/03/19 00:46:51;;;;;;;14.80;10.33;;;10.40;75.50;;;;;;5012224;28;20467;-80
2023/03/19 00:49:19;;;;;;;14.03;9.53;;;10.40;75.50;;;;;;4999067;28;20523;-79
2023/03/19 00:51:47;;;;;;;14.20;9.33;;;10.20;75.50;;;;;;5022325;28;20470;-82
2023/03/19 00:54:15;;;;;;;12.73;8.33;;;10.20;75.70;;;;;;5004180;28;20507;-83
2023/03/19 00:56:43;;;;;;;14.03;8.13;;;10.20;75.70;;;;;;5010514;28;20475;-81
2023/03/19 00:59:15;;;;;;;13.90;8.23;;;10.10;75.80;;;;;;5012274;28;20460;-83
2023/03/19 01:01:45;;;;;;;14.90;7.80;;;10.00;75.80;;;;;;5009930;28;20465;-80
2023/03/19 01:04:13;;;;;;;12.90;6.70;;;10.00;75.90;;;;;;4992374;28;20514;-79
2023/03/19 01:06:42;;;;;;;14.10;7.57;;;10.00;76.00;;;;;;4999508;28;20539;-82
2023/03/19 01:09:10;;;;;;;12.83;7.43;;;9.90;75.90;;;;;;5011382;28;20452;-80
2023/03/19 01:11:38;;;;;;;10.73;7.27;;;9.90;76.20;;;;;;4996976;28;20457;-83
2023/03/19 01:14:06;;;;;;;11.50;6.17;;;10.00;76.20;;;;;;4985801;28;20583;-80
2023/03/19 01:16:34;;;;;;;13.00;7.17;;;10.00;76.30;;;;;;5008645;28;20460;-80
2023/03/19 01:19:04;;;;;;;16.13;6.23;;;10.10;76.20;;;;;;4998253;28;20455;-80
2023/03/19 01:21:34;;;;;;;8.37;5.33;;;10.10;76.20;;;;;;4993799;28;20468;-80
2023/03/19 01:24:03;;;;;;;11.70;6.27;;;10.10;76.00;;;;;;5000051;28;21311;-83
2023/03/19 01:26:31;;;;;;;56.47;17.77;;;10.10;75.90;;;;;;5011252;28;20460;-79
2023/03/19 01:29:12;;;;;;;55.10;19.30;;;10.10;75.80;;;;;;4989182;28;20492;-80
2023/03/19 01:31:40;;;;;;;108.97;28.83;;;10.10;75.80;;;;;;4997343;28;20482;-82
2023/03/19 01:34:23;;;;;;;70.73;18.27;;;10.00;75.90;;;;;;4995109;28;21147;-83
2023/03/19 01:36:57;;;;;;;40.53;12.47;;;10.10;75.90;;;;;;4994132;28;20460;-80
2023/03/19 01:39:32;;;;;;;25.57;11.30;;;10.10;75.90;;;;;;4994916;28;20714;-79
2023/03/19 01:42:04;;;;;;;41.33;13.80;;;10.10;75.90;;;;;;4994677;28;20478;-79
2023/03/19 01:44:55;;;;;;;40.57;14.23;;;10.10;75.80;;;;;;5000117;28;20468;-79
2023/03/19 01:47:30;;;;;;;131.50;42.70;;;10.10;75.70;;;;;;5008951;28;20527;-83
2023/03/19 01:50:23;;;;;;;27.33;12.97;;;10.00;75.90;;;;;;5007618;28;20465;-80
2023/03/19 01:53:00;;;;;;;18.60;11.70;;;9.90;75.80;;;;;;4994302;28;20485;-80
2023/03/19 01:55:42;;;;;;;22.80;11.73;;;9.80;76.00;;;;;;5007476;28;20468;-81
2023/03/19 01:58:17;;;;;;;45.73;17.93;;;9.80;76.10;;;;;;4991669;28;20607;-81
2023/03/19 02:01:08;;;;;;;73.07;24.80;;;9.80;76.30;;;;;;4992900;28;20527;-80
2023/03/19 02:03:42;;;;;;;59.03;22.37;;;9.80;76.40;;;;;;4996034;28;20526;-80
2023/03/19 02:06:20;;;;;;;40.30;17.90;;;9.80;76.40;;;;;;4999148;28;20520;-79
2023/03/19 02:08:50;;;;;;;34.47;15.30;;;9.90;76.50;;;;;;5011514;28;20486;-80
2023/03/19 02:11:18;;;;;;;41.90;16.63;;;9.90;76.50;;;;;;5006339;28;20461;-79
2023/03/19 02:13:47;;;;;;;45.27;15.40;;;10.00;76.50;;;;;;4992713;28;20922;-80
2023/03/19 02:16:15;;;;;;;30.43;13.30;;;10.00;76.50;;;;;;4986830;28;20465;-82
2023/03/19 02:18:44;;;;;;;48.90;20.77;;;10.00;76.50;;;;;;5009406;28;20576;-80
2023/03/19 02:21:16;;;;;;;49.93;20.70;;;10.10;76.60;;;;;;5012700;28;20452;-79
2023/03/19 02:23:53;;;;;;;14.27;7.90;;;10.10;76.50;;;;;;4994362;28;20477;-82
2023/03/19 02:26:38;;;;;;;15.30;8.83;;;10.10;76.50;;;;;;4991224;28;20488;-83
2023/03/19 02:29:07;;;;;;;33.67;15.33;;;10.00;76.50;;;;;;4993290;28;20460;-79
2023/03/19 02:31:36;;;;;;;19.93;8.93;;;10.00;76.60;;;;;;4996589;28;20473;-79
2023/03/19 02:34:28;;;;;;;19.83;11.07;;;10.10;76.60;;;;;;4994803;28;20452;-79
2023/03/19 02:37:01;;;;;;;13.70;8.97;;;10.00;76.60;;;;;;4993580;28;20464;-80
2023/03/19 02:39:34;;;;;;;15.57;7.57;;;10.00;76.70;;;;;;4993847;28;20461;-81
2023/03/19 02:42:06;;;;;;;15.07;8.40;;;10.00;76.70;;;;;;4998953;28;20464;-80
2023/03/19 02:44:33;;;;;;;15.90;8.37;;;10.00;76.90;;;;;;4991699;28;20468;-80
2023/03/19 02:47:04;;;;;;;28.50;14.00;;;9.90;76.90;;;;;;4993855;28;20850;-81
2023/03/19 02:49:32;;;;;;;24.83;11.30;;;10.00;77.10;;;;;;4991423;28;20469;-82
2023/03/19 02:52:01;;;;;;;16.60;8.87;;;10.00;77.10;;;;;;4993694;28;20463;-80
2023/03/19 02:54:30;;;;;;;12.23;6.73;;;10.00;77.20;;;;;;5000317;28;20461;-80
2023/03/19 02:56:59;;;;;;;11.53;6.60;;;10.00;77.20;;;;;;4997187;28;20460;-80
2023/03/19 02:59:29;;;;;;;17.80;9.90;;;10.00;77.40;;;;;;4995150;28;20496;-79
2023/03/19 03:01:57;;;;;;;17.70;9.17;;;10.10;77.50;;;;;;5001018;28;20481;-82
2023/03/19 03:04:25;;;;;;;24.63;11.47;;;10.10;77.40;;;;;;5011115;28;20760;-83
2023/03/19 03:06:53;;;;;;;25.43;11.97;;;10.10;77.40;;;;;;5008150;28;20526;-81
2023/03/19 03:09:21;;;;;;;28.57;12.83;;;10.20;77.50;;;;;;5008965;28;20488;-79
2023/03/19 03:11:51;;;;;;;21.27;11.10;;;10.20;77.50;;;;;;4989779;28;20461;-79
2023/03/19 03:14:19;;;;;;;20.03;9.67;;;10.20;77.50;;;;;;5005432;28;20469;-82
2023/03/19 03:16:52;;;;;;;21.33;9.77;;;10.20;77.70;;;;;;4997607;28;20970;-83
2023/03/19 03:19:22;;;;;;;41.77;19.43;;;10.30;77.80;;;;;;5011566;28;20448;-79
2023/03/19 03:21:51;;;;;;;26.03;12.47;;;10.40;77.70;;;;;;4996184;28;20814;-82
2023/03/19 03:24:19;;;;;;;13.70;7.30;;;10.40;77.70;;;;;;5012335;28;20472;-82
2023/03/19 03:26:48;;;;;;;15.30;7.70;;;10.40;77.60;;;;;;5022276;28;20514;-82
2023/03/19 03:29:17;;;;;;;12.67;7.30;;;10.50;77.60;;;;;;5003431;28;20953;-79
2023/03/19 03:31:45;;;;;;;12.50;6.67;;;10.50;77.60;;;;;;4999120;28;20481;-81
2023/03/19 03:34:14;;;;;;;11.57;6.53;;;10.50;77.60;;;;;;5013353;28;20466;-83
2023/03/19 03:36:45;;;;;;;12.17;6.93;;;10.50;77.60;;;;;;4993580;28;20464;-80
2023/03/19 03:39:13;;;;;;;14.67;7.93;;;10.60;77.60;;;;;;4991701;28;20465;-82
2023/03/19 03:41:42;;;;;;;15.63;7.90;;;10.60;77.60;;;;;;5001801;28;20477;-82
2023/03/19 03:44:10;;;;;;;12.30;7.47;;;10.60;77.60;;;;;;5002624;28;20472;-82
2023/03/19 03:46:42;;;;;;;13.20;7.70;;;10.60;77.60;;;;;;4998011;28;20992;-83
2023/03/19 03:49:10;;;;;;;13.20;8.53;;;10.60;77.50;;;;;;4997983;28;20528;-82
2023/03/19 03:51:40;;;;;;;18.53;11.10;;;10.60;77.50;;;;;;4992980;28;20464;-82
2023/03/19 03:54:08;;;;;;;27.03;13.40;;;10.60;77.50;;;;;;4995457;28;20491;-83
2023/03/19 03:56:36;;;;;;;20.80;12.90;;;10.50;77.50;;;;;;5018949;28;20820;-81
2023/03/19 03:59:04;;;;;;;15.53;9.70;;;10.40;77.50;;;;;;5013951;28;20452;-79
2023/03/19 04:01:32;;;;;;;13.33;8.77;;;10.40;77.60;;;;;;5000322;28;20580;-81
2023/03/19 04:04:00;;;;;;;16.97;8.73;;;10.30;77.90;;;;;;4992690;28;20503;-81
2023/03/19 04:06:29;;;;;;;17.17;8.80;;;10.30;78.10;;;;;;5000336;28;20464;-80
2023/03/19 04:09:19;;;;;;;34.50;18.00;;;10.30;78.30;;;;;;5011018;28;20461;-83
2023/03/19 04:11:47;;;;;;;16.03;9.37;;;10.40;78.40;;;;;;5008614;28;20470;-81
2023/03/19 04:14:18;;;;;;;14.43;7.97;;;10.40;78.40;;;;;;5007498;28;20519;-83
2023/03/19 04:16:46;;;;;;;14.00;6.97;;;10.40;78.40;;;;;;5002160;28;20550;-82
2023/03/19 04:19:14;;;;;;;12.40;7.30;;;10.50;78.50;;;;;;5005698;28;20885;-80
2023/03/19 04:21:43;;;;;;;13.10;8.33;;;10.50;78.70;;;;;;5001053;28;20458;-81
2023/03/19 04:24:13;;;;;;;12.13;8.47;;;10.50;78.80;;;;;;5003399;28;20490;-79
2023/03/19 04:26:42;;;;;;;15.40;8.60;;;10.60;78.70;;;;;;4992063;28;20449;-81
2023/03/19 04:29:10;;;;;;;13.37;8.37;;;10.70;78.70;;;;;;5002194;28;20469;-83
2023/03/19 04:31:39;;;;;;;19.63;10.07;;;10.70;78.60;;;;;;4989155;28;20469;-80
2023/03/19 04:34:07;;;;;;;13.07;8.63;;;10.70;78.60;;;;;;5002432;28;20574;-81
2023/03/19 04:36:35;;;;;;;20.40;9.40;;;10.70;78.60;;;;;;5010702;28;20445;-80
2023/03/19 04:39:03;;;;;;;13.40;7.90;;;10.70;78.60;;;;;;4993301;28;20476;-83
2023/03/19 04:41:32;;;;;;;14.73;8.50;;;10.70;78.60;;;;;;5010304;28;20935;-80
2023/03/19 04:44:21;;;;;;;18.37;8.97;;;10.70;78.60;;;;;;4999443;28;20632;-83
2023/03/19 04:46:50;;;;;;;12.53;8.40;;;10.70;78.70;;;;;;5017965;28;20564;-81
2023/03/19 04:49:20;;;;;;;11.83;7.77;;;10.70;78.70;;;;;;4986372;28;20462;-81
2023/03/19 04:51:52;;;;;;;17.70;8.80;;;10.70;78.70;;;;;;4999569;28;20465;-81
2023/03/19 04:54:20;;;;;;;15.30;9.93;;;10.70;78.80;;;;;;4997992;28;20576;-82
2023/03/19 04:56:48;;;;;;;14.73;9.60;;;10.70;78.80;;;;;;5013204;28;20480;-82
2023/03/19 04:59:17;;;;;;;15.53;8.57;;;10.70;78.80;;;;;;4994980;28;20518;-81
2023/03/19 05:01:46;;;;;;;16.77;8.00;;;10.70;78.80;;;;;;5011351;28;20475;-83
2023/03/19 05:04:19;;;;;;;13.20;7.33;;;10.80;78.90;;;;;;5006527;28;20477;-83
2023/03/19 05:06:49;;;;;;;11.43;7.00;;;10.80;78.90;;;;;;5000136;28;20529;-80
2023/03/19 05:09:17;;;;;;;10.33;6.67;;;10.80;79.00;;;;;;5006493;28;20460;-81
2023/03/19 05:11:45;;;;;;;11.50;4.87;;;10.80;79.00;;;;;;5007134;28;20457;-82
2023/03/19 05:14:18;;;;;;;8.87;5.03;;;10.90;78.90;;;;;;4987388;28;20497;-81
2023/03/19 05:17:14;;;;;;;8.57;3.83;;;10.90;79.00;;;;;;5003873;28;20593;-82
2023/03/19 05:19:55;;;;;;;6.33;3.90;;;11.00;79.10;;;;;;4991732;28;20617;-80
2023/03/19 05:22:25;;;;;;;11.20;4.60;;;11.00;79.10;;;;;;4996896;28;20457;-82
2023/03/19 05:24:54;;;;;;;6.03;3.70;;;11.10;79.00;;;;;;5001965;28;21288;-81
2023/03/19 05:27:22;;;;;;;12.13;3.90;;;11.20;78.90;;;;;;4995654;28;20457;-79
2023/03/19 05:29:59;;;;;;;7.93;4.10;;;11.20;78.80;;;;;;4988841;28;20466;-82
2023/03/19 05:32:47;;;;;;;9.27;3.93;;;11.30;78.80;;;;;;5009802;28;20507;-83
2023/03/19 05:35:28;;;;;;;9.53;3.83;;;11.30;78.60;;;;;;4995918;28;20471;-80
2023/03/19 05:37:56;;;;;;;8.30;4.33;;;11.40;78.60;;;;;;4984890;28;20473;-80
2023/03/19 05:40:25;;;;;;;6.27;3.87;;;11.50;78.60;;;;;;4995041;28;20480;-81
2023/03/19 05:42:54;;;;;;;6.50;3.80;;;11.50;78.50;;;;;;4990353;28;20460;-83
2023/03/19 05:45:26;;;;;;;11.20;4.87;;;11.50;78.40;;;;;;4992685;28;20574;-79
2023/03/19 05:47:58;;;;;;;7.53;4.10;;;11.60;78.30;;;;;;4995596;28;20506;-79
2023/03/19 05:50:26;;;;;;;7.77;4.27;;;11.60;78.30;;;;;;4995445;28;20461;-82
2023/03/19 05:53:15;;;;;;;8.40;3.90;;;11.60;78.30;;;;;;4993242;28;20477;-79
2023/03/19 05:55:52;;;;;;;8.00;4.20;;;11.60;78.20;;;;;;5011508;28;20484;-82
2023/03/19 05:58:23;;;;;;;7.13;4.03;;;11.60;78.20;;;;;;4995785;28;20464;-81
2023/03/19 06:00:55;;;;;;;7.60;3.83;;;11.70;78.10;;;;;;4999897;28;20533;-80
2023/03/19 06:03:27;;;;;;;7.57;4.50;;;11.70;78.00;;;;;;5003288;28;20484;-80
2023/03/19 06:06:00;;;;;;;8.13;4.33;;;11.80;78.00;;;;;;4997622;28;20473;-79
2023/03/19 06:08:35;;;;;;;10.30;4.20;;;11.70;77.90;;;;;;4997136;28;20471;-83
2023/03/19 06:11:20;;;;;;;10.43;4.07;;;11.70;77.90;;;;;;4991656;28;20486;-82
2023/03/19 06:13:56;;;;;;;6.50;4.00;;;11.70;77.90;;;;;;4992799;28;20490;-80
2023/03/19 06:16:24;;;;;;;7.23;4.10;;;11.80;77.90;;;;;;4994758;28;20513;-80
2023/03/19 06:18:55;;;;;;;7.60;3.90;;;11.80;77.90;;;;;;4990098;28;20969;-82
2023/03/19 06:21:28;;;;;;;9.20;4.13;;;11.80;77.90;;;;;;4992332;28;20449;-83
2023/03/19 06:23:58;;;;;;;10.63;4.27;;;11.80;77.80;;;;;;4996576;28;20519;-79
2023/03/19 06:26:33;;;;;;;9.60;4.30;;;11.80;77.80;;;;;;5005880;28;20494;-83
2023/03/19 06:29:06;;;;;;;7.57;4.37;;;11.80;77.90;;;;;;5009393;28;20474;-83
2023/03/19 06:31:40;;;;;;;7.93;4.80;;;11.80;77.80;;;;;;5003805;28;20517;-83
2023/03/19 06:34:21;;;;;;;10.17;5.30;;;11.80;77.90;;;;;;4994483;28;20457;-83
2023/03/19 06:36:49;;;;;;;10.17;4.53;;;11.80;77.90;;;;;;4997873;28;20540;-82
2023/03/19 06:39:18;;;;;;;7.53;4.27;;;11.80;78.00;;;;;;4990998;28;20561;-80
2023/03/19 06:41:46;;;;;;;7.33;4.30;;;11.80;78.00;;;;;;5012412;28;20474;-80
2023/03/19 06:44:18;;;;;;;8.30;4.67;;;11.80;78.00;;;;;;5002603;28;20483;-80
2023/03/19 06:46:53;;;;;;;7.40;4.70;;;11.80;78.00;;;;;;5006891;28;20883;-81
2023/03/19 06:49:23;;;;;;;9.90;4.37;;;11.80;78.10;;;;;;4994545;28;20462;-79
2023/03/19 06:51:50;;;;;;;8.87;4.40;;;11.80;78.00;;;;;;5010845;28;20455;-81
2023/03/19 06:54:19;;;;;;;10.63;4.13;;;11.80;78.10;;;;;;5006286;28;20495;-82
2023/03/19 06:56:47;;;;;;;7.47;4.00;;;11.90;78.10;;;;;;4990647;28;20462;-80
2023/03/19 06:59:21;;;;;;;8.20;4.70;;;11.90;78.10;;;;;;5007496;28;20448;-81
2023/03/19 07:01:49;;;;;;;11.50;4.43;;;11.90;78.10;;;;;;5000134;28;20508;-83
2023/03/19 07:04:17;;;;;;;6.70;4.27;;;11.90;78.10;;;;;;4990939;28;20453;-80
2023/03/19 07:06:47;;;;;;;8.00;4.30;;;12.00;78.10;;;;;;5019492;28;20503;-81
2023/03/19 07:09:15;;;;;;;6.90;4.17;;;12.00;78.10;;;;;;5003280;28;20538;-80
2023/03/19 07:11:43;;;;;;;7.90;4.33;;;12.00;78.00;;;;;;5011638;28;21141;-81
2023/03/19 07:14:11;;;;;;;11.63;4.40;;;12.00;78.00;;;;;;5018388;28;20475;-81
2023/03/19 07:16:38;;;;;;;10.43;5.00;;;12.00;78.00;;;;;;5014075;28;20470;-80
2023/03/19 07:19:07;;;;;;;10.37;4.33;;;12.10;78.00;;;;;;5009711;28;20453;-83
2023/03/19 07:21:35;;;;;;;8.47;4.60;;;12.10;78.00;;;;;;5004464;28;20475;-82
2023/03/19 07:24:05;;;;;;;8.87;4.70;;;12.10;78.00;;;;;;5012201;28;20460;-80
2023/03/19 07:26:34;;;;;;;8.47;4.43;;;12.10;78.00;;;;;;5016754;28;20901;-80
2023/03/19 07:29:02;;;;;;;7.43;4.20;;;12.10;78.00;;;;;;5012165;28;20453;-79
2023/03/19 07:31:30;;;;;;;7.53;4.10;;;12.10;78.00;;;;;;5009199;28;21139;-82
2023/03/19 07:33:58;;;;;;;7.90;4.27;;;12.20;77.90;;;;;;4999995;28;20502;-82
2023/03/19 07:36:26;;;;;;;7.47;4.37;;;12.20;77.90;;;;;;5010684;28;20467;-80
2023/03/19 07:38:54;;;;;;;7.97;4.33;;;12.20;77.90;;;;;;4998314;28;20459;-80
2023/03/19 07:41:23;;;;;;;8.43;4.50;;;12.20;77.90;;;;;;5020823;28;20455;-82
2023/03/19 07:43:51;;;;;;;10.53;4.17;;;12.30;77.90;;;;;;5009977;28;20455;-82
2023/03/19 07:46:20;;;;;;;10.00;4.37;;;12.30;77.90;;;;;;5007920;28;20487;-80
2023/03/19 07:48:48;;;;;;;6.50;4.20;;;12.30;77.90;;;;;;5011163;28;20468;-81
2023/03/19 07:51:16;;;;;;;6.50;3.97;;;12.40;77.70;;;;;;5016110;28;20984;-79
2023/03/19 07:53:44;;;;;;;8.23;4.13;;;12.40;77.70;;;;;;5018214;28;20479;-81
2023/03/19 07:56:12;;;;;;;7.67;4.60;;;12.40;77.80;;;;;;5016607;28;20537;-78
2023/03/19 07:58:42;;;;;;;6.90;4.07;;;12.50;77.80;;;;;;5015456;28;20462;-82
2023/03/19 08:01:10;;;;;;;8.63;4.23;;;12.50;77.80;;;;;;4993172;28;20475;-80
2023/03/19 08:03:38;;;;;;;8.77;4.80;;;12.50;77.80;;;;;;5015058;28;20458;-81
2023/03/19 08:06:06;;;;;;;8.03;4.50;;;12.60;77.80;;;;;;5009983;28;20482;-79
2023/03/19 08:08:34;;;;;;;8.30;4.47;;;12.60;77.80;;;;;;5009437;28;20449;-79
2023/03/19 08:11:04;;;;;;;8.60;4.47;;;12.70;77.80;;;;;;5009122;28;20470;-79
2023/03/19 08:13:32;;;;;;;8.27;3.93;;;12.70;77.80;;;;;;5010251;28;20476;-83
2023/03/19 08:16:01;;;;;;;7.30;3.87;;;12.70;77.80;;;;;;4993821;28;20479;-81
2023/03/19 08:18:29;;;;;;;12.50;4.17;;;12.80;77.70;;;;;;5007860;28;20994;-81
2023/03/19 08:20:57;;;;;;;7.70;3.67;;;12.80;77.60;;;;;;5010002;28;20464;-78
2023/03/19 08:23:25;;;;;;;8.77;4.50;;;12.90;77.50;;;;;;5015311;28;20935;-81
2023/03/19 08:25:55;;;;;;;10.63;5.90;;;12.90;77.50;;;;;;4993458;28;20517;-82
2023/03/19 08:28:23;;;;;;;9.70;5.33;;;12.90;77.40;;;;;;5006136;28;20921;-81
2023/03/19 08:30:51;;;;;;;11.43;5.30;;;13.00;77.40;;;;;;5000140;28;20828;-81
2023/03/19 08:33:21;;;;;;;9.90;4.67;;;13.00;77.40;;;;;;4997458;28;20543;-78
2023/03/19 08:35:49;;;;;;;12.20;6.30;;;13.10;77.40;;;;;;5015128;28;20795;-81
2023/03/19 08:38:18;;;;;;;10.43;5.70;;;13.10;77.40;;;;;;5016508;28;20503;-79
2023/03/19 08:40:46;;;;;;;16.70;7.73;;;13.10;77.30;;;;;;5011812;28;20555;-79
2023/03/19 08:43:14;;;;;;;13.50;7.83;;;13.10;77.30;;;;;;4998637;28;20502;-79
2023/03/19 08:45:42;;;;;;;9.97;5.93;;;13.00;77.40;;;;;;5009822;28;20534;-79
2023/03/19 08:48:10;;;;;;;9.10;4.60;;;13.10;77.30;;;;;;5010392;28;20487;-79
2023/03/19 08:50:39;;;;;;;8.40;4.87;;;13.10;77.50;;;;;;5015012;28;20485;-80
2023/03/19 08:53:07;;;;;;;7.17;4.13;;;13.10;77.40;;;;;;4995264;28;20456;-80
2023/03/19 08:55:35;;;;;;;10.03;3.80;;;13.10;77.50;;;;;;5008712;28;20482;-78
2023/03/19 08:58:03;;;;;;;10.63;4.90;;;13.10;77.40;;;;;;5008648;28;20456;-80
2023/03/19 09:00:31;;;;;;;8.70;4.40;;;13.10;77.40;;;;;;5009716;28;20466;-78
2023/03/19 09:03:00;;;;;;;7.30;4.67;;;13.20;77.40;;;;;;5005587;28;20460;-78
2023/03/19 09:05:27;;;;;;;14.23;8.90;;;13.10;77.40;;;;;;5012430;28;20478;-79
2023/03/19 09:07:58;;;;;;;28.83;19.93;;;13.10;77.50;;;;;;5010120;28;20840;-79
2023/03/19 09:10:25;;;;;;;15.77;7.93;;;13.10;77.60;;;;;;5008866;28;20467;-80
2023/03/19 09:12:53;;;;;;;11.43;7.23;;;13.20;77.60;;;;;;5000844;28;20473;-78
2023/03/19 09:15:21;;;;;;;11.40;6.30;;;13.20;77.60;;;;;;5013454;28;20479;-79
2023/03/19 09:17:50;;;;;;;12.63;6.60;;;13.20;77.50;;;;;;5004140;28;20967;-80
2023/03/19 09:20:18;;;;;;;11.40;5.00;;;13.20;77.60;;;;;;4993864;28;20467;-81
2023/03/19 09:22:46;;;;;;;11.60;5.93;;;13.20;77.70;;;;;;5009347;28;20470;-80
2023/03/19 09:25:15;;;;;;;8.23;4.50;;;13.20;77.70;;;;;;5013493;28;20463;-80
2023/03/19 09:27:43;;;;;;;6.60;4.53;;;13.20;77.80;;;;;;5011791;28;20487;-79
2023/03/19 09:30:12;;;;;;;7.27;4.13;;;13.30;78.00;;;;;;5006974;28;20460;-80
2023/03/19 09:32:40;;;;;;;9.67;4.60;;;13.40;77.80;;;;;;5009916;28;20547;-80
2023/03/19 09:35:09;;;;;;;6.83;4.50;;;13.40;77.70;;;;;;5016390;28;20539;-81
2023/03/19 09:37:37;;;;;;;7.30;4.53;;;13.40;77.80;;;;;;5010310;28;20829;-79
2023/03/19 09:40:06;;;;;;;9.20;4.50;;;13.30;78.00;;;;;;5006663;28;20722;-78
2023/03/19 09:42:55;;;;;;;6.33;3.90;;;13.40;78.10;;;;;;5009259;28;20465;-79
2023/03/19 09:45:24;;;;;;;6.77;3.80;;;13.50;78.00;;;;;;5007513;28;20484;-80
2023/03/19 09:47:56;;;;;;;8.10;4.10;;;13.50;78.00;;;;;;5002604;28;20575;-79
2023/03/19 09:50:27;;;;;;;6.03;3.30;;;13.60;77.90;;;;;;5006577;28;20471;-80
2023/03/19 09:53:01;;;;;;;8.63;4.17;;;13.60;77.80;;;;;;5004948;28;20475;-78
2023/03/19 09:55:41;;;;;;;6.90;3.87;;;13.70;77.70;;;;;;5007225;28;20997;-80
2023/03/19 09:58:15;;;;;;;9.20;3.80;;;13.70;77.60;;;;;;5009575;28;20464;-78
2023/03/19 10:00:47;;;;;;;10.10;4.10;;;13.70;77.60;;;;;;5007923;28;20468;-79
2023/03/19 10:03:41;;;;;;;13.73;3.70;;;13.80;77.60;;;;;;5008338;28;20464;-79
2023/03/19 10:06:28;;;;;;;7.07;3.80;;;13.90;77.50;;;;;;5007123;28;20523;-78
2023/03/19 10:09:10;;;;;;;5.77;3.50;;;13.90;77.30;;;;;;5008180;28;20546;-79
2023/03/19 10:11:51;;;;;;;6.27;3.73;;;13.90;77.20;;;;;;4988921;28;20460;-79
2023/03/19 10:14:43;;;;;;;7.10;3.70;;;13.90;77.20;;;;;;5002026;28;20559;-79
2023/03/19 10:17:17;;;;;;;7.03;3.40;;;14.00;76.90;;;;;;4985244;28;20523;-79
2023/03/19 10:19:50;;;;;;;8.27;4.30;;;13.90;77.10;;;;;;4991628;28;20461;-79
2023/03/19 10:22:21;;;;;;;6.93;3.97;;;13.90;77.10;;;;;;4986045;28;20491;-79
2023/03/19 10:24:52;;;;;;;8.20;3.30;;;14.00;77.10;;;;;;5008444;28;20467;-78
2023/03/19 10:27:27;;;;;;;15.60;8.60;;;14.00;77.10;;;;;;4990099;28;20495;-78
2023/03/19 10:29:57;;;;;;;16.47;10.50;;;14.00;76.90;;;;;;4987479;28;20467;-79
2023/03/19 10:32:37;;;;;;;10.90;5.73;;;14.00;77.10;;;;;;5004706;28;20496;-77
2023/03/19 10:35:09;;;;;;;9.10;5.23;;;14.00;76.90;;;;;;5004710;28;20559;-78
2023/03/19 10:37:38;;;;;;;10.10;5.23;;;14.10;76.80;;;;;;4991153;28;20453;-79
2023/03/19 10:40:19;;;;;;;9.23;4.90;;;14.10;76.80;;;;;;5010540;28;20461;-79
2023/03/19 10:43:01;;;;;;;12.00;6.63;;;14.10;76.80;;;;;;5009278;28;20463;-80
2023/03/19 10:45:33;;;;;;;14.73;7.03;;;14.10;76.80;;;;;;5007350;28;20465;-78
2023/03/19 10:48:05;;;;;;;10.03;5.37;;;14.10;76.80;;;;;;4985503;28;20487;-79
2023/03/19 10:50:36;;;;;;;7.37;3.60;;;14.20;76.80;;;;;;4992523;28;20496;-79
2023/03/19 10:53:07;;;;;;;44.40;28.40;;;14.30;76.60;;;;;;5005733;28;20477;-78
2023/03/19 10:55:35;;;;;;;22.03;12.00;;;14.30;76.70;;;;;;5006285;28;20829;-79
2023/03/19 10:58:06;;;;;;;18.33;11.40;;;14.40;76.60;;;;;;5004716;28;20772;-78
2023/03/19 11:00:35;;;;;;;10.13;5.10;;;14.40;76.40;;;;;;4990135;28;20547;-79
2023/03/19 11:03:04;;;;;;;6.13;3.47;;;14.50;76.40;;;;;;5000432;28;20464;-78
2023/03/19 11:05:33;;;;;;;5.83;3.60;;;14.50;76.30;;;;;;4994098;28;20464;-80
2023/03/19 11:08:04;;;;;;;9.90;3.60;;;14.50;76.20;;;;;;5006845;28;20488;-79
2023/03/19 11:10:35;;;;;;;10.27;4.10;;;14.50;76.10;;;;;;5003175;28;21017;-79
2023/03/19 11:13:06;;;;;;;7.30;3.27;;;14.60;75.90;;;;;;4990038;28;20465;-80
2023/03/19 11:15:37;;;;;;;9.03;3.50;;;14.70;76.00;;;;;;5001750;28;20502;-79
2023/03/19 11:18:08;;;;;;;7.53;3.93;;;14.80;75.80;;;;;;4978440;28;20470;-79
2023/03/19 11:20:38;;;;;;;8.97;4.00;;;14.90;75.80;;;;;;5003945;28;20483;-78
2023/03/19 11:23:11;;;;;;;8.03;3.43;;;14.90;75.70;;;;;;5007828;28;21019;-80
2023/03/19 11:25:41;;;;;;;8.00;3.90;;;15.00;75.50;;;;;;5003905;28;20467;-79
2023/03/19 11:28:13;;;;;;;6.90;3.10;;;15.00;75.30;;;;;;4994409;28;20506;-80
2023/03/19 11:30:50;;;;;;;6.17;2.90;;;15.10;75.20;;;;;;5001701;28;20550;-80
2023/03/19 11:33:50;;;;;;;10.27;3.83;;;15.10;74.80;;;;;;5000313;28;20460;-80
2023/03/19 11:36:24;;;;;;;7.50;2.97;;;15.20;74.70;;;;;;4998554;28;20473;-79
2023/03/19 11:39:11;;;;;;;6.70;2.83;;;15.20;74.50;;;;;;4991024;28;20496;-80
2023/03/19 11:41:53;;;;;;;6.10;2.67;;;15.30;74.30;;;;;;5009486;28;20464;-79
2023/03/19 11:44:28;;;;;;;6.30;2.90;;;15.30;74.10;;;;;;5002945;28;20458;-79
2023/03/19 11:47:07;;;;;;;7.60;3.00;;;15.30;74.10;;;;;;5001978;28;20472;-78
2023/03/19 11:50:00;;;;;;;6.80;3.00;;;15.30;74.10;;;;;;5008123;28;20484;-78
2023/03/19 11:52:35;;;;;;;6.10;2.60;;;15.40;73.70;;;;;;4999577;28;20461;-79
2023/03/19 11:55:20;;;;;;;7.07;3.00;;;15.40;73.60;;;;;;5012509;28;20456;-78
2023/03/19 11:58:03;;;;;;;5.13;2.00;;;15.40;73.60;;;;;;5009479;28;20487;-79
2023/03/19 12:00:36;;;;;;;6.50;2.70;;;15.50;73.50;;;;;;5008058;28;20488;-78
2023/03/19 12:03:32;;;;;;;6.67;2.83;;;15.60;73.20;;;;;;5008892;28;20469;-80
2023/03/19 12:06:07;;;;;;;4.37;2.03;;;15.60;72.80;;;;;;5004041;28;20468;-79
2023/03/19 12:08:42;;;;;;;7.20;3.43;;;15.70;72.50;;;;;;5003346;28;21017;-80
2023/03/19 12:11:20;;;;;;;6.40;2.30;;;15.70;72.20;;;;;;5007854;28;20470;-79
2023/03/19 12:13:59;;;;;;;5.40;2.20;;;15.80;71.80;;;;;;5008183;28;20476;-79
2023/03/19 12:16:38;;;;;;;6.67;2.60;;;15.80;71.60;;;;;;5006980;28;20524;-78
2023/03/19 12:19:29;;;;;;;5.30;2.23;;;15.80;71.70;;;;;;5007532;28;20465;-79
2023/03/19 12:22:08;;;;;;;4.70;1.93;;;15.70;71.50;;;;;;4996058;28;21256;-79
2023/03/19 12:24:56;;;;;;;4.27;1.73;;;15.80;71.10;;;;;;5002589;28;20471;-78
2023/03/19 12:27:33;;;;;;;4.80;1.87;;;15.80;70.50;;;;;;4992221;28;20461;-79
2023/03/19 12:30:09;;;;;;;4.93;2.20;;;15.80;70.70;;;;;;5004085;28;20630;-78
2023/03/19 12:32:54;;;;;;;6.37;2.17;;;15.80;70.60;;;;;;5007237;28;20486;-79
2023/03/19 12:35:31;;;;;;;6.90;1.97;;;15.90;70.40;;;;;;5005939;28;20540;-79
2023/03/19 12:38:05;;;;;;;5.47;1.83;;;16.00;70.30;;;;;;5009399;28;20518;-79
2023/03/19 12:40:38;;;;;;;6.20;2.40;;;16.10;70.40;;;;;;4998279;28;20481;-79
2023/03/19 12:43:14;;;;;;;6.63;2.00;;;16.20;70.00;;;;;;5009589;28;20470;-78
2023/03/19 12:45:45;;;;;;;6.90;1.97;;;16.20;69.70;;;;;;5007032;28;20475;-79
2023/03/19 12:48:17;;;;;;;6.37;2.20;;;16.30;69.60;;;;;;5002517;28;20456;-79
2023/03/19 12:50:53;;;;;;;5.60;2.40;;;16.30;69.20;;;;;;5000215;28;20993;-78
2023/03/19 12:53:30;;;;;;;4.70;1.83;;;16.30;69.00;;;;;;5011011;28;20489;-78
2023/03/19 12:56:04;;;;;;;5.20;2.80;;;16.30;69.00;;;;;;5007315;28;20446;-79
2023/03/19 12:58:42;;;;;;;5.93;2.20;;;16.30;68.60;;;;;;5011583;28;20464;-79
2023/03/19 13:01:16;;;;;;;6.53;2.13;;;16.30;68.50;;;;;;5005347;28;20480;-78
2023/03/19 13:03:54;;;;;;;4.70;1.80;;;16.30;68.30;;;;;;5006766;28;20855;-79
2023/03/19 13:06:28;;;;;;;4.93;1.90;;;16.40;67.90;;;;;;5002722;28;20465;-80